createdAt,value
2022-07-25T00:02:30.418Z,5.60
2022-07-25T00:05:02.582Z,6.00
2022-07-25T00:07:35.078Z,6.20
2022-07-25T00:10:08.157Z,6.60
2022-07-25T00:12:40.947Z,5.50
2022-07-25T00:15:14.126Z,6.90
2022-07-25T00:17:46.394Z,5.90
2022-07-25T00:20:18.221Z,5.70
2022-07-25T00:22:49.975Z,6.20
2022-07-25T00:25:21.791Z,5.70
2022-07-25T00:27:54.409Z,6.30
2022-07-25T00:30:27.246Z,6.20
2022-07-25T00:35:29.297Z,7.30
2022-07-25T00:38:01.491Z,6.80
2022-07-25T00:40:33.873Z,6.60
2022-07-25T00:43:06.529Z,6.60
2022-07-25T00:45:39.161Z,6.20
2022-07-25T00:48:10.996Z,6.60
2022-07-25T00:50:42.995Z,6.70
2022-07-25T00:53:15.217Z,6.60
2022-07-25T00:55:47.519Z,6.80
2022-07-25T00:58:19.598Z,6.90
2022-07-25T01:00:51.844Z,6.80
2022-07-25T01:03:25.189Z,7.00
2022-07-25T01:05:57.528Z,7.00
2022-07-25T01:08:29.864Z,7.10
2022-07-25T01:11:01.626Z,7.20
2022-07-25T01:13:36.818Z,7.50
2022-07-25T01:16:11.119Z,7.40
2022-07-25T01:18:43.503Z,7.80
2022-07-25T01:21:15.538Z,7.60
2022-07-25T01:23:47.605Z,8.20
2022-07-25T01:26:19.525Z,8.30
2022-07-25T01:28:51.312Z,8.50
2022-07-25T01:31:23.722Z,8.10
2022-07-25T01:33:55.685Z,7.40
2022-07-25T01:36:27.730Z,8.40
2022-07-25T01:38:59.739Z,7.30
2022-07-25T01:41:31.403Z,7.30
2022-07-25T01:44:03.901Z,7.50
2022-07-25T01:46:36.726Z,8.50
2022-07-25T01:49:08.879Z,7.40
2022-07-25T01:51:41.142Z,8.90
2022-07-25T01:54:12.810Z,7.30
2022-07-25T01:56:48.312Z,8.00
2022-07-25T01:59:20.288Z,8.60
2022-07-25T02:01:52.159Z,8.10
2022-07-25T02:04:24.122Z,7.60
2022-07-25T02:06:55.835Z,7.10
2022-07-25T02:09:27.606Z,8.90
2022-07-25T02:12:01.347Z,7.80
2022-07-25T02:14:34.130Z,7.90
2022-07-25T02:17:06.269Z,8.10
2022-07-25T02:19:38.367Z,7.00
2022-07-25T02:22:10.438Z,8.20
2022-07-25T02:24:42.396Z,7.90
2022-07-25T02:27:14.121Z,8.80
2022-07-25T02:29:45.885Z,8.30
2022-07-25T02:32:17.622Z,8.50
2022-07-25T02:34:49.308Z,9.20
2022-07-25T02:37:21.116Z,8.80
2022-07-25T02:39:53.075Z,9.00
2022-07-25T02:42:24.893Z,8.80
2022-07-25T02:44:56.867Z,9.20
2022-07-25T02:47:29.750Z,9.10
2022-07-25T02:50:01.565Z,8.70
2022-07-25T02:52:34.297Z,9.20
2022-07-25T02:55:09.857Z,9.40
2022-07-25T02:57:41.780Z,9.20
2022-07-25T03:00:16.927Z,8.80
2022-07-25T03:02:48.912Z,10.20
2022-07-25T03:05:21.401Z,8.50
2022-07-25T03:07:53.461Z,9.20
2022-07-25T03:10:25.177Z,9.20
2022-07-25T03:12:56.969Z,10.60
2022-07-25T03:15:28.935Z,10.00
2022-07-25T03:18:01.594Z,8.80
2022-07-25T03:20:33.441Z,8.60
2022-07-25T03:23:05.407Z,9.00
2022-07-25T03:25:37.191Z,9.50
2022-07-25T03:28:09.588Z,10.20
2022-07-25T03:30:41.731Z,9.10
2022-07-25T03:33:13.578Z,9.70
2022-07-25T03:35:45.424Z,9.70
2022-07-25T03:38:17.223Z,10.60
2022-07-25T03:40:49.539Z,17.10
2022-07-25T03:43:21.649Z,13.20
2022-07-25T03:45:53.659Z,13.40
2022-07-25T03:48:25.853Z,11.30
2022-07-25T03:51:01.212Z,10.50
2022-07-25T03:53:57.006Z,10.10
2022-07-25T03:56:29.251Z,10.50
2022-07-25T03:59:01.050Z,11.10
2022-07-25T04:01:33.363Z,10.30
2022-07-25T04:04:06.354Z,10.60
2022-07-25T04:06:38.985Z,10.80
2022-07-25T04:09:12.082Z,11.50
2022-07-25T04:11:44.078Z,10.00
2022-07-25T04:14:15.888Z,10.70
2022-07-25T04:16:47.881Z,12.10
2022-07-25T04:19:20.056Z,11.70
2022-07-25T04:21:51.829Z,12.90
2022-07-25T04:24:23.576Z,11.90
2022-07-25T04:26:55.332Z,11.20
2022-07-25T04:29:27.177Z,11.10
2022-07-25T04:31:59.142Z,11.60
2022-07-25T04:34:31.107Z,13.00
2022-07-25T04:37:02.827Z,11.40
2022-07-25T04:39:34.712Z,11.00
2022-07-25T04:42:06.923Z,12.20
2022-07-25T04:44:38.791Z,10.70
2022-07-25T04:47:10.669Z,10.80
2022-07-25T04:49:43.096Z,11.60
2022-07-25T04:52:14.967Z,11.30
2022-07-25T04:54:47.085Z,10.30
2022-07-25T04:57:19.864Z,10.10
2022-07-25T04:59:52.000Z,10.00
2022-07-25T05:02:23.904Z,10.80
2022-07-25T05:04:55.971Z,11.20
2022-07-25T05:07:29.089Z,9.70
2022-07-25T05:10:00.805Z,9.60
2022-07-25T05:12:32.539Z,9.90
2022-07-25T05:15:05.039Z,9.10
2022-07-25T05:17:36.829Z,9.10
2022-07-25T05:20:11.400Z,8.70
2022-07-25T05:22:43.616Z,8.90
2022-07-25T05:25:15.685Z,8.50
2022-07-25T05:27:47.520Z,7.80
2022-07-25T05:30:19.495Z,9.00
2022-07-25T05:32:51.302Z,8.20
2022-07-25T05:35:22.995Z,8.20
2022-07-25T05:37:54.703Z,8.00
2022-07-25T05:40:26.507Z,8.20
2022-07-25T05:43:02.907Z,10.00
2022-07-25T05:45:35.425Z,8.20
2022-07-25T05:48:07.813Z,8.50
2022-07-25T05:53:10.756Z,8.50
2022-07-25T05:55:42.488Z,8.30
2022-07-25T05:58:14.244Z,9.10
2022-07-25T06:00:46.027Z,8.70
2022-07-25T06:03:17.963Z,7.50
2022-07-25T06:05:50.355Z,7.80
2022-07-25T06:08:22.471Z,6.90
2022-07-25T06:10:54.414Z,7.10
2022-07-25T06:13:26.953Z,7.30
2022-07-25T06:16:00.101Z,7.50
2022-07-25T06:18:32.605Z,6.70
2022-07-25T06:21:04.782Z,6.90
2022-07-25T06:23:36.623Z,6.40
2022-07-25T06:26:11.529Z,6.10
2022-07-25T06:28:43.371Z,6.20
2022-07-25T06:31:15.244Z,5.50
2022-07-25T06:33:47.313Z,5.30
2022-07-25T06:36:19.046Z,5.30
2022-07-25T06:38:51.003Z,6.00
2022-07-25T06:41:22.900Z,5.40
2022-07-25T06:43:55.247Z,4.90
2022-07-25T06:46:31.109Z,4.80
2022-07-25T06:49:03.375Z,5.00
2022-07-25T06:51:36.384Z,5.10
2022-07-25T06:54:08.905Z,5.30
2022-07-25T06:56:41.006Z,4.80
2022-07-25T06:59:12.680Z,5.00
2022-07-25T07:01:49.514Z,4.90
2022-07-25T07:04:23.233Z,5.00
2022-07-25T07:06:54.954Z,5.10
2022-07-25T07:09:26.657Z,5.60
2022-07-25T07:11:58.374Z,4.70
2022-07-25T07:14:30.373Z,4.00
2022-07-25T07:17:02.165Z,4.40
2022-07-25T07:19:34.153Z,4.60
2022-07-25T07:22:07.144Z,4.80
2022-07-25T07:24:44.036Z,4.50
2022-07-25T07:27:19.091Z,3.80
2022-07-25T07:29:51.150Z,4.60
2022-07-25T07:32:23.395Z,4.40
2022-07-25T07:34:55.075Z,4.30
2022-07-25T07:37:29.402Z,3.70
2022-07-25T07:40:04.260Z,3.70
2022-07-25T07:42:41.939Z,4.20
2022-07-25T07:45:19.089Z,3.60
2022-07-25T07:47:52.817Z,3.50
2022-07-25T07:50:27.063Z,3.70
2022-07-25T07:52:59.623Z,3.70
2022-07-25T07:55:48.776Z,4.50
2022-07-25T07:58:21.805Z,4.20
2022-07-25T08:00:54.391Z,4.00
2022-07-25T08:05:56.460Z,3.30
2022-07-25T08:08:31.349Z,3.30
2022-07-25T08:11:03.408Z,4.20
2022-07-25T08:13:35.213Z,3.30
2022-07-25T08:16:07.879Z,2.90
2022-07-25T08:18:39.876Z,3.40
2022-07-25T08:21:12.831Z,3.00
2022-07-25T08:23:47.152Z,3.60
2022-07-25T08:26:19.092Z,3.00
2022-07-25T08:29:04.932Z,2.80
2022-07-25T08:31:42.695Z,3.30
2022-07-25T08:34:14.486Z,2.60
2022-07-25T08:36:46.205Z,3.00
2022-07-25T08:39:18.005Z,3.10
2022-07-25T08:41:50.752Z,2.90
2022-07-25T08:44:23.662Z,4.90
2022-07-25T08:46:56.012Z,2.80
2022-07-25T08:52:01.527Z,2.80
2022-07-25T08:54:34.788Z,2.60
2022-07-25T08:57:07.087Z,2.80
2022-07-25T08:59:38.893Z,2.50
2022-07-25T09:02:14.337Z,2.50
2022-07-25T09:04:46.290Z,2.40
2022-07-25T09:07:18.286Z,3.10
2022-07-25T09:09:50.082Z,2.40
2022-07-25T09:12:28.510Z,3.10
2022-07-25T09:15:00.227Z,2.10
2022-07-25T09:17:32.384Z,2.70
2022-07-25T09:20:06.527Z,2.80
2022-07-25T09:22:48.222Z,2.90
2022-07-25T09:25:29.939Z,2.20
2022-07-25T09:28:14.772Z,2.40
2022-07-25T09:30:57.506Z,2.30
2022-07-25T09:33:30.886Z,1.80
2022-07-25T09:36:12.983Z,2.40
2022-07-25T09:38:54.283Z,2.60
2022-07-25T09:41:36.436Z,2.40
2022-07-25T09:44:18.715Z,2.20
2022-07-25T09:46:51.350Z,2.80
2022-07-25T09:49:23.400Z,4.40
2022-07-25T09:51:55.906Z,2.90
2022-07-25T09:54:27.841Z,2.30
2022-07-25T09:57:07.504Z,2.30
2022-07-25T09:59:39.595Z,2.20
2022-07-25T10:02:14.893Z,2.20
2022-07-25T10:04:54.320Z,2.40
2022-07-25T10:07:31.210Z,1.90
2022-07-25T10:10:03.514Z,2.40
2022-07-25T10:12:38.253Z,2.10
2022-07-25T10:15:13.726Z,2.20
2022-07-25T10:17:45.742Z,2.30
2022-07-25T10:20:28.452Z,2.30
2022-07-25T10:23:00.799Z,2.10
2022-07-25T10:25:32.814Z,1.90
2022-07-25T10:28:10.588Z,2.10
2022-07-25T10:30:44.350Z,2.50
2022-07-25T10:33:21.536Z,2.10
2022-07-25T10:35:53.307Z,2.00
2022-07-25T10:38:31.067Z,2.00
2022-07-25T10:41:05.473Z,1.70
2022-07-25T10:43:43.655Z,1.90
2022-07-25T10:46:23.233Z,1.90
2022-07-25T10:49:03.318Z,2.00
2022-07-25T10:51:41.484Z,2.30
2022-07-25T10:54:18.652Z,2.20
2022-07-25T10:56:59.684Z,1.90
2022-07-25T10:59:34.434Z,2.90
2022-07-25T11:02:08.665Z,1.90
2022-07-25T11:04:40.537Z,1.80
2022-07-25T11:07:14.428Z,2.50
2022-07-25T11:09:57.415Z,2.20
2022-07-25T11:12:29.299Z,2.30
2022-07-25T11:15:07.398Z,2.40
2022-07-25T11:17:39.149Z,2.40
2022-07-25T11:20:13.413Z,2.10
2022-07-25T11:22:51.926Z,2.70
2022-07-25T11:25:24.781Z,2.30
2022-07-25T11:28:02.386Z,2.10
2022-07-25T11:30:34.508Z,2.00
2022-07-25T11:33:06.414Z,2.60
2022-07-25T11:35:38.387Z,2.50
2022-07-25T11:38:15.011Z,2.30
2022-07-25T11:40:48.491Z,2.60
2022-07-25T11:43:24.799Z,2.20
2022-07-25T11:46:01.955Z,2.20
2022-07-25T11:48:37.032Z,2.60
2022-07-25T11:51:18.602Z,2.20
2022-07-25T11:53:53.687Z,2.30
2022-07-25T11:56:42.027Z,2.20
2022-07-25T11:59:16.605Z,2.20
2022-07-25T12:01:48.826Z,2.10
2022-07-25T12:06:52.820Z,3.10
2022-07-25T12:09:24.972Z,2.20
2022-07-25T12:12:05.452Z,2.30
2022-07-25T12:14:46.139Z,2.20
2022-07-25T12:17:17.847Z,2.10
2022-07-25T12:19:49.652Z,2.50
2022-07-25T12:22:21.489Z,2.40
2022-07-25T12:24:53.257Z,2.70
2022-07-25T12:27:25.937Z,2.50
2022-07-25T12:29:58.161Z,2.30
2022-07-25T12:32:30.885Z,2.40
2022-07-25T12:35:02.650Z,2.10
2022-07-25T12:37:34.970Z,2.30
2022-07-25T12:42:37.481Z,2.50
2022-07-25T12:45:11.847Z,2.60
2022-07-25T12:47:45.309Z,3.40
2022-07-25T12:50:18.977Z,2.30
2022-07-25T12:52:51.071Z,2.30
2022-07-25T12:55:23.820Z,2.00
2022-07-25T12:57:55.615Z,2.30
2022-07-25T13:00:28.164Z,2.10
2022-07-25T13:03:00.406Z,2.50
2022-07-25T13:05:32.236Z,2.40
2022-07-25T13:08:07.450Z,2.40
2022-07-25T13:10:39.331Z,2.80
2022-07-25T13:13:11.420Z,2.40
2022-07-25T13:18:14.169Z,2.40
2022-07-25T13:20:46.594Z,2.60
2022-07-25T13:23:20.816Z,2.30
2022-07-25T13:25:53.302Z,2.50
2022-07-25T13:28:25.437Z,2.40
2022-07-25T13:33:29.436Z,3.60
2022-07-25T13:38:31.608Z,3.80
2022-07-25T13:41:03.498Z,2.00
2022-07-25T13:43:35.405Z,2.30
2022-07-25T13:46:07.535Z,3.30
2022-07-25T13:48:40.782Z,2.30
2022-07-25T13:51:12.749Z,2.20
2022-07-25T13:53:45.329Z,2.70
2022-07-25T13:56:17.767Z,3.40
2022-07-25T13:58:49.510Z,2.60
2022-07-25T14:01:21.638Z,2.90
2022-07-25T14:03:55.093Z,2.40
2022-07-25T14:06:26.881Z,2.40
2022-07-25T14:09:00.122Z,2.70
2022-07-25T14:11:32.509Z,2.20
2022-07-25T14:16:35.123Z,2.70
2022-07-25T14:19:08.131Z,2.90
2022-07-25T14:21:40.330Z,2.50
2022-07-25T14:24:12.366Z,2.90
2022-07-25T14:26:44.229Z,2.70
2022-07-25T14:29:16.046Z,2.30
2022-07-25T14:31:48.772Z,2.30
2022-07-25T14:34:21.890Z,2.70
2022-07-25T14:36:54.133Z,2.80
2022-07-25T14:39:25.859Z,3.30
2022-07-25T14:41:59.369Z,2.70
2022-07-25T14:44:31.373Z,3.50
2022-07-25T14:49:33.544Z,2.30
2022-07-25T14:52:05.859Z,2.40
2022-07-25T14:54:37.675Z,2.40
2022-07-25T14:57:09.949Z,2.60
2022-07-25T14:59:42.133Z,2.40
2022-07-25T15:02:14.393Z,2.60
2022-07-25T15:04:46.794Z,2.30
2022-07-25T15:07:18.679Z,2.20
2022-07-25T15:12:21.755Z,2.30
2022-07-25T15:14:53.875Z,2.50
2022-07-25T15:17:25.642Z,2.40
2022-07-25T15:19:57.392Z,2.70
2022-07-25T15:22:29.545Z,2.40
2022-07-25T15:27:53.141Z,2.90
2022-07-25T15:30:29.193Z,2.50
2022-07-25T15:33:01.633Z,2.30
2022-07-25T15:35:33.980Z,2.30
2022-07-25T15:38:06.142Z,2.50
2022-07-25T15:40:38.039Z,2.60
2022-07-25T15:45:42.101Z,2.60
2022-07-25T15:48:17.727Z,2.20
2022-07-25T15:50:51.543Z,2.50
2022-07-25T15:53:23.937Z,2.40
2022-07-25T15:55:55.780Z,2.80
2022-07-25T15:58:27.995Z,2.50
2022-07-25T16:00:59.889Z,2.40
2022-07-25T16:06:04.063Z,2.40
2022-07-25T16:08:37.519Z,2.80
2022-07-25T16:11:09.352Z,2.50
2022-07-25T16:13:42.048Z,2.40
2022-07-25T16:16:13.840Z,2.40
2022-07-25T16:21:16.606Z,3.10
2022-07-25T16:26:18.578Z,3.40
2022-07-25T16:28:56.091Z,3.20
2022-07-25T16:31:29.543Z,2.90
2022-07-25T16:34:01.502Z,3.20
2022-07-25T16:36:33.764Z,2.80
2022-07-25T16:39:06.784Z,2.60
2022-07-25T16:41:38.805Z,3.30
2022-07-25T16:44:10.827Z,3.10
2022-07-25T16:46:42.598Z,3.10
2022-07-25T16:49:15.543Z,2.90
2022-07-25T16:51:48.437Z,2.80
2022-07-25T16:54:20.580Z,2.70
2022-07-25T16:56:54.274Z,3.00
2022-07-25T16:59:27.740Z,2.80
2022-07-25T17:01:59.707Z,2.70
2022-07-25T17:04:32.278Z,2.60
2022-07-25T17:07:04.302Z,2.90
2022-07-25T17:09:36.171Z,3.60
2022-07-25T17:12:08.667Z,2.40
2022-07-25T17:14:40.540Z,2.90
2022-07-25T17:17:12.594Z,2.80
2022-07-25T17:19:44.601Z,3.00
2022-07-25T17:22:16.361Z,3.00
2022-07-25T17:24:48.109Z,2.70
2022-07-25T17:27:19.744Z,3.60
2022-07-25T17:29:51.619Z,2.90
2022-07-25T17:32:27.842Z,2.50
2022-07-25T17:35:01.808Z,2.90
2022-07-25T17:37:33.799Z,3.30
2022-07-25T17:40:07.712Z,2.70
2022-07-25T17:42:44.890Z,2.80
2022-07-25T17:45:17.786Z,3.10
2022-07-25T17:47:49.836Z,3.10
2022-07-25T17:53:01.290Z,3.20
2022-07-25T17:55:36.869Z,2.70
2022-07-25T17:58:11.177Z,2.90
2022-07-25T18:00:43.080Z,2.70
2022-07-25T18:03:14.974Z,2.90
2022-07-25T18:05:47.738Z,3.00
2022-07-25T18:08:19.799Z,2.70
2022-07-25T18:10:52.101Z,3.30
2022-07-25T18:13:24.410Z,3.20
2022-07-25T18:15:56.614Z,2.80
2022-07-25T18:18:30.031Z,2.60
2022-07-25T18:21:01.912Z,3.10
2022-07-25T18:23:33.582Z,3.20
2022-07-25T18:26:05.821Z,3.10
2022-07-25T18:31:10.394Z,3.00
2022-07-25T18:33:42.287Z,3.50
2022-07-25T18:36:14.163Z,2.80
2022-07-25T18:38:46.418Z,3.20
2022-07-25T18:41:29.030Z,3.00
2022-07-25T18:44:01.621Z,3.10
2022-07-25T18:49:05.553Z,3.30
2022-07-25T18:51:40.041Z,3.50
2022-07-25T18:56:43.648Z,2.70
2022-07-25T18:59:16.141Z,3.20
2022-07-25T19:01:50.207Z,3.70
2022-07-25T19:04:22.164Z,3.30
2022-07-25T19:06:54.622Z,3.30
2022-07-25T19:09:26.972Z,3.50
2022-07-25T19:11:58.769Z,5.50
2022-07-25T19:14:30.944Z,3.40
2022-07-25T19:17:05.103Z,3.30
2022-07-25T19:19:36.989Z,3.10
2022-07-25T19:22:09.450Z,4.00
2022-07-25T19:24:42.220Z,3.70
2022-07-25T19:27:14.422Z,3.10
2022-07-25T19:29:49.164Z,4.20
2022-07-25T19:32:22.577Z,3.10
2022-07-25T19:34:54.707Z,3.90
2022-07-25T19:39:57.651Z,2.70
2022-07-25T19:42:30.000Z,3.10
2022-07-25T19:45:02.226Z,3.70
2022-07-25T19:47:34.798Z,3.40
2022-07-25T19:50:07.607Z,3.80
2022-07-25T19:52:39.848Z,3.30
2022-07-25T19:57:43.817Z,3.60
2022-07-25T20:00:16.941Z,3.30
2022-07-25T20:02:48.951Z,3.70
2022-07-25T20:05:22.190Z,3.30
2022-07-25T20:07:54.080Z,3.90
2022-07-25T20:10:26.821Z,3.90
2022-07-25T20:13:01.382Z,4.10
2022-07-25T20:15:34.135Z,3.70
2022-07-25T20:18:06.174Z,3.30
2022-07-25T20:20:38.149Z,3.70
2022-07-25T20:23:10.143Z,3.30
2022-07-25T20:25:41.829Z,4.00
2022-07-25T20:28:13.796Z,3.70
2022-07-25T20:30:46.142Z,3.90
2022-07-25T20:33:19.143Z,3.40
2022-07-25T20:35:50.921Z,3.80
2022-07-25T20:38:24.931Z,3.60
2022-07-25T20:40:57.153Z,4.10
2022-07-25T20:43:29.864Z,3.40
2022-07-25T20:46:06.098Z,3.40
2022-07-25T20:48:41.170Z,3.60
2022-07-25T20:51:13.959Z,3.80
2022-07-25T20:53:45.948Z,3.90
2022-07-25T20:56:25.318Z,4.10
2022-07-25T20:58:57.080Z,4.00
2022-07-25T21:01:28.909Z,3.40
2022-07-25T21:04:04.286Z,3.80
2022-07-25T21:06:38.868Z,4.80
2022-07-25T21:09:10.984Z,3.80
2022-07-25T21:11:43.568Z,3.60
2022-07-25T21:14:15.257Z,4.00
2022-07-25T21:16:47.024Z,3.80
2022-07-25T21:19:18.749Z,3.70
2022-07-25T21:21:50.990Z,3.90
2022-07-25T21:24:22.738Z,3.90
2022-07-25T21:26:54.442Z,4.20
2022-07-25T21:29:26.297Z,4.20
2022-07-25T21:31:58.128Z,4.00
2022-07-25T21:34:29.959Z,3.50
2022-07-25T21:37:02.022Z,4.60
2022-07-25T21:39:34.250Z,3.60
2022-07-25T21:42:09.763Z,3.90
2022-07-25T21:44:42.740Z,4.80
2022-07-25T21:47:14.841Z,4.00
2022-07-25T21:50:04.740Z,4.20
2022-07-25T21:52:36.642Z,3.80
2022-07-25T21:55:09.413Z,4.20
2022-07-25T21:57:41.263Z,3.70
2022-07-25T22:00:15.846Z,5.00
2022-07-25T22:02:48.962Z,3.80
2022-07-25T22:05:21.420Z,3.70
2022-07-25T22:07:53.339Z,3.90
2022-07-25T22:10:26.334Z,3.50
2022-07-25T22:12:58.377Z,4.50
2022-07-25T22:15:30.191Z,4.00
2022-07-25T22:18:02.024Z,4.20
2022-07-25T22:20:33.673Z,4.00
2022-07-25T22:23:05.823Z,4.50
2022-07-25T22:25:37.648Z,4.10
2022-07-25T22:28:09.520Z,4.70
2022-07-25T22:30:46.096Z,3.30
2022-07-25T22:33:17.963Z,3.30
2022-07-25T22:35:49.611Z,4.30
2022-07-25T22:38:21.761Z,4.40
2022-07-25T22:40:53.615Z,3.60
2022-07-25T22:43:25.666Z,4.40
2022-07-25T22:46:17.490Z,4.10
2022-07-25T22:48:49.399Z,3.60
2022-07-25T22:51:21.518Z,3.70
2022-07-25T22:53:53.396Z,4.00
2022-07-25T22:56:25.320Z,4.00
2022-07-25T22:58:57.016Z,4.30
2022-07-25T23:01:28.715Z,4.00
2022-07-25T23:04:00.577Z,4.30
2022-07-25T23:06:32.397Z,4.40
2022-07-25T23:09:04.935Z,4.30
2022-07-25T23:11:37.665Z,3.80
2022-07-25T23:14:09.674Z,3.80
2022-07-25T23:16:41.552Z,3.60
2022-07-25T23:19:13.324Z,3.80
2022-07-25T23:21:45.004Z,4.40
2022-07-25T23:24:16.851Z,3.90
2022-07-25T23:26:48.562Z,4.30
2022-07-25T23:29:20.259Z,4.50
2022-07-25T23:31:52.393Z,3.80
2022-07-25T23:34:24.340Z,4.40
2022-07-25T23:36:56.599Z,4.50
2022-07-25T23:39:28.350Z,4.90
2022-07-25T23:42:00.658Z,3.60
2022-07-25T23:47:03.213Z,3.70
2022-07-25T23:49:36.806Z,4.10
2022-07-25T23:52:09.025Z,3.60
2022-07-25T23:54:41.058Z,4.10
2022-07-25T23:57:12.909Z,3.80
2022-07-25T23:59:44.554Z,4.30
